Budapest Bridge — VRIZ5 — position and weather

sailwx.info

Track history (hours):
 
Tides and Currents Weather Stations Pressure Air Temp Water Temp Dewpoint Dewpoint Depression Visibility Wind Speed Wind Dir Waves Ship Positions

Budapest Bridge

Last reported at 2014-Aug-19 06:00 UTC. Time now 2014-Aug-20 06:51 UTC.
Position S 35°00' E 025°18'.

Length 268 m; draft 12 m.

Type: Cargo ship. MMSI: 477434200.

Wind from 090 at 21 knots

Barometer 1010.0 mb
Air temperature 21.0 ° C
Visibility: greater than 5.4 NM
Dewpoint 30.2 ° C

Date/timePositionNaut miles runAvg speedWind from/ knotsBaromVisibWave heightAir tempDewpointWater temp
2014-Aug-19 06:00S 35°00' E 025°18'6911.5 090 / 211010.0 5.4 21.030.2
2014-Aug-19 00:00S 35°00' E 023°54'20613.8 240 / 101010.0 5.4 1.519.017.420.0
2014-Aug-18 09:05S 35°09' E 019°43'2113.3
2014-Aug-18 07:31S 34°60' E 019°20'1313.7
2014-Aug-18 06:33S 34°52' E 019°08'1413.7
2014-Aug-18 05:33S 34°44' E 018°54'1414.0
2014-Aug-18 04:33S 34°37' E 018°39'1413.5
2014-Aug-18 03:33S 34°30' E 018°25'1312.3
2014-Aug-18 02:27S 34°20' E 018°15'1213.8
2014-Aug-18 01:33S 34°07' E 018°13'1613.7
2014-Aug-18 00:23S 33°52' E 018°19'7 1.2
2014-Aug-17 18:33S 33°55' E 018°27'0 0.0
2014-Aug-17 17:33S 33°55' E 018°27'0 0.0
2014-Aug-17 16:33S 33°55' E 018°27'0 0.0
2014-Aug-17 15:33S 33°55' E 018°27'0 0.0
2014-Aug-17 14:33S 33°55' E 018°27'0 0.0
2014-Aug-17 13:33S 33°55' E 018°27'0 0.0
2014-Aug-17 12:33S 33°55' E 018°27'0 0.0
2014-Aug-17 11:33S 33°55' E 018°27'0 0.0
2014-Aug-17 10:33S 33°55' E 018°27'0 0.0
2014-Aug-17 09:33S 33°55' E 018°27'0 0.0
2014-Aug-17 08:33S 33°55' E 018°27'0 0.0
2014-Aug-17 07:33S 33°55' E 018°27'0 0.0
2014-Aug-17 06:33S 33°55' E 018°27'0 0.0
2014-Aug-17 05:33S 33°55' E 018°27'0 0.0
2014-Aug-17 04:33S 33°55' E 018°27'0 0.0
2014-Aug-17 03:33S 33°55' E 018°27'0 0.0
2014-Aug-17 02:33S 33°55' E 018°27'0 0.0
2014-Aug-17 01:33S 33°55' E 018°27'0 0.0
2014-Aug-17 00:33S 33°55' E 018°27'0 0.0
2014-Aug-16 23:33S 33°55' E 018°27'0 0.0
2014-Aug-16 22:33S 33°55' E 018°27'0 0.0
2014-Aug-16 21:33S 33°55' E 018°27'0 0.0
2014-Aug-16 20:33S 33°55' E 018°27'0 0.0
2014-Aug-16 19:33S 33°55' E 018°27'0 0.0
2014-Aug-16 18:33S 33°55' E 018°27'0 0.0
2014-Aug-16 17:33S 33°55' E 018°27'0 0.0
2014-Aug-16 16:33S 33°55' E 018°27'0 0.0
2014-Aug-16 15:33S 33°55' E 018°27'0 0.0
2014-Aug-16 14:33S 33°55' E 018°27'2 2.1
2014-Aug-16 13:33S 33°53' E 018°26'5 3.6
2014-Aug-16 12:16S 33°53' E 018°20'1 2.0
2014-Aug-16 11:32S 33°55' E 018°19'9 4.3
2014-Aug-16 09:33S 34°02' E 018°14'1110.7
2014-Aug-16 08:33S 34°13' E 018°15'1817.0
2014-Aug-16 07:30S 34°28' E 018°26'1718.0
2014-Aug-16 06:33S 34°37' E 018°44'2120.9
2014-Aug-16 05:33S 34°48' E 019°06'5020.9
2014-Aug-16 03:10S 35°02' E 020°04'1421.4
2014-Aug-16 02:31S 34°59' E 020°21'2521.4
2014-Aug-16 01:21S 34°54' E 020°50'32721.6
2014-Aug-15 10:13S 33°47' E 027°18'1724.7
2014-Aug-15 09:31S 33°38' E 027°36'2424.4
2014-Aug-15 08:32S 33°23' E 027°59'18723.1
2014-Aug-15 00:27S 31°06' E 030°28'2423.0
2014-Aug-14 23:25S 30°45' E 030°42'2524.1
2014-Aug-14 22:23S 30°23' E 030°56'1417.5
2014-Aug-14 21:33S 30°11' E 031°04'1616.0
2014-Aug-14 20:33S 29°56' E 031°10'8 7.4
2014-Aug-14 19:32S 29°53' E 031°02'0 0.3
2014-Aug-14 18:30S 29°53' E 031°02'0 0.0
2014-Aug-14 17:30S 29°53' E 031°02'0 0.0
2014-Aug-14 16:30S 29°53' E 031°02'0 0.0
2014-Aug-14 15:30S 29°53' E 031°02'0 0.0
2014-Aug-14 14:30S 29°53' E 031°02'0 0.0
2014-Aug-14 13:18S 29°53' E 031°02'0 0.0
2014-Aug-14 12:06S 29°53' E 031°02'0 0.0
2014-Aug-14 11:06S 29°53' E 031°02'0 0.0
2014-Aug-14 10:06S 29°53' E 031°02'0 0.0
2014-Aug-14 09:18S 29°53' E 031°02'0 0.0
2014-Aug-14 08:12S 29°53' E 031°02'0 0.0
2014-Aug-14 07:30S 29°53' E 031°02'0 0.0
2014-Aug-14 06:24S 29°53' E 031°02'0 0.0
2014-Aug-14 05:30S 29°53' E 031°02'0 0.0
2014-Aug-14 04:30S 29°53' E 031°02'0 0.0
2014-Aug-14 03:30S 29°53' E 031°02'0 0.0
2014-Aug-14 02:30S 29°53' E 031°02'0 0.0
2014-Aug-14 01:30S 29°53' E 031°02'0 0.0
2014-Aug-14 00:24S 29°53' E 031°02'0 0.0
2014-Aug-13 23:12S 29°53' E 031°02'0 0.0
2014-Aug-13 22:30S 29°53' E 031°02'0 0.0
2014-Aug-13 21:24S 29°53' E 031°02'0 0.0
2014-Aug-13 20:30S 29°53' E 031°02'0 0.0
2014-Aug-13 19:18S 29°53' E 031°02'0 0.0
2014-Aug-13 18:18S 29°53' E 031°02'0 0.0
2014-Aug-13 17:30S 29°53' E 031°02'0 0.0
2014-Aug-13 16:30S 29°53' E 031°02'  
2014-Aug-10 06:00S 29°06' E 034°30'13021.6 360 / 151022.010.8 22.018.926.0
2014-Aug-10 00:00S 28°36' E 036°54'14123.4 080 / 121021.0 5.4 1.022.017.226.0
2014-Aug-09 18:00S 28°06' E 039°30'   100 / 131023.010.8 1.522.018.926.0
Track history (hours):
 
Tides and Currents Weather Stations Pressure Air Temp Water Temp Dewpoint Dewpoint Depression Visibility Wind Speed Wind Dir Waves Ship Positions

Budapest Bridge

Last reported at 2014-Aug-19 06:00 UTC. Time now 2014-Aug-20 06:51 UTC.
Position S 35°00' E 025°18'.

Length 268 m; draft 12 m.

Type: Cargo ship. MMSI: 477434200.

Wind from 090 at 21 knots

Barometer 1010.0 mb
Air temperature 21.0 ° C
Visibility: greater than 5.4 NM
Dewpoint 30.2 ° C

Date/timePositionNaut miles runAvg speedWind from/ knotsBaromVisibWave heightAir tempDewpointWater temp
2014-Aug-19 06:00S 35°00' E 025°18'6911.5 090 / 211010.0 5.4 21.030.2
2014-Aug-19 00:00S 35°00' E 023°54'20613.8 240 / 101010.0 5.4 1.519.017.420.0
2014-Aug-18 09:05S 35°09' E 019°43'2113.3
2014-Aug-18 07:31S 34°60' E 019°20'1313.7
2014-Aug-18 06:33S 34°52' E 019°08'1413.7
2014-Aug-18 05:33S 34°44' E 018°54'1414.0
2014-Aug-18 04:33S 34°37' E 018°39'1413.5
2014-Aug-18 03:33S 34°30' E 018°25'1312.3
2014-Aug-18 02:27S 34°20' E 018°15'1213.8
2014-Aug-18 01:33S 34°07' E 018°13'1613.7
2014-Aug-18 00:23S 33°52' E 018°19'7 1.2
2014-Aug-17 18:33S 33°55' E 018°27'0 0.0
2014-Aug-17 17:33S 33°55' E 018°27'0 0.0
2014-Aug-17 16:33S 33°55' E 018°27'0 0.0
2014-Aug-17 15:33S 33°55' E 018°27'0 0.0
2014-Aug-17 14:33S 33°55' E 018°27'0 0.0
2014-Aug-17 13:33S 33°55' E 018°27'0 0.0
2014-Aug-17 12:33S 33°55' E 018°27'0 0.0
2014-Aug-17 11:33S 33°55' E 018°27'0 0.0
2014-Aug-17 10:33S 33°55' E 018°27'0 0.0
2014-Aug-17 09:33S 33°55' E 018°27'0 0.0
2014-Aug-17 08:33S 33°55' E 018°27'0 0.0
2014-Aug-17 07:33S 33°55' E 018°27'0 0.0
2014-Aug-17 06:33S 33°55' E 018°27'0 0.0
2014-Aug-17 05:33S 33°55' E 018°27'0 0.0
2014-Aug-17 04:33S 33°55' E 018°27'0 0.0
2014-Aug-17 03:33S 33°55' E 018°27'0 0.0
2014-Aug-17 02:33S 33°55' E 018°27'0 0.0
2014-Aug-17 01:33S 33°55' E 018°27'0 0.0
2014-Aug-17 00:33S 33°55' E 018°27'0 0.0
2014-Aug-16 23:33S 33°55' E 018°27'0 0.0
2014-Aug-16 22:33S 33°55' E 018°27'0 0.0
2014-Aug-16 21:33S 33°55' E 018°27'0 0.0
2014-Aug-16 20:33S 33°55' E 018°27'0 0.0
2014-Aug-16 19:33S 33°55' E 018°27'0 0.0
2014-Aug-16 18:33S 33°55' E 018°27'0 0.0
2014-Aug-16 17:33S 33°55' E 018°27'0 0.0
2014-Aug-16 16:33S 33°55' E 018°27'0 0.0
2014-Aug-16 15:33S 33°55' E 018°27'0 0.0
2014-Aug-16 14:33S 33°55' E 018°27'2 2.1
2014-Aug-16 13:33S 33°53' E 018°26'5 3.6
2014-Aug-16 12:16S 33°53' E 018°20'1 2.0
2014-Aug-16 11:32S 33°55' E 018°19'9 4.3
2014-Aug-16 09:33S 34°02' E 018°14'1110.7
2014-Aug-16 08:33S 34°13' E 018°15'1817.0
2014-Aug-16 07:30S 34°28' E 018°26'1718.0
2014-Aug-16 06:33S 34°37' E 018°44'2120.9
2014-Aug-16 05:33S 34°48' E 019°06'5020.9
2014-Aug-16 03:10S 35°02' E 020°04'1421.4
2014-Aug-16 02:31S 34°59' E 020°21'2521.4
2014-Aug-16 01:21S 34°54' E 020°50'32721.6
2014-Aug-15 10:13S 33°47' E 027°18'1724.7
2014-Aug-15 09:31S 33°38' E 027°36'2424.4
2014-Aug-15 08:32S 33°23' E 027°59'18723.1
2014-Aug-15 00:27S 31°06' E 030°28'2423.0
2014-Aug-14 23:25S 30°45' E 030°42'2524.1
2014-Aug-14 22:23S 30°23' E 030°56'1417.5
2014-Aug-14 21:33S 30°11' E 031°04'1616.0
2014-Aug-14 20:33S 29°56' E 031°10'8 7.4
2014-Aug-14 19:32S 29°53' E 031°02'0 0.3
2014-Aug-14 18:30S 29°53' E 031°02'0 0.0
2014-Aug-14 17:30S 29°53' E 031°02'0 0.0
2014-Aug-14 16:30S 29°53' E 031°02'0 0.0
2014-Aug-14 15:30S 29°53' E 031°02'0 0.0
2014-Aug-14 14:30S 29°53' E 031°02'0 0.0
2014-Aug-14 13:18S 29°53' E 031°02'0 0.0
2014-Aug-14 12:06S 29°53' E 031°02'0 0.0
2014-Aug-14 11:06S 29°53' E 031°02'0 0.0
2014-Aug-14 10:06S 29°53' E 031°02'0 0.0
2014-Aug-14 09:18S 29°53' E 031°02'0 0.0
2014-Aug-14 08:12S 29°53' E 031°02'0 0.0
2014-Aug-14 07:30S 29°53' E 031°02'0 0.0
2014-Aug-14 06:24S 29°53' E 031°02'0 0.0
2014-Aug-14 05:30S 29°53' E 031°02'0 0.0
2014-Aug-14 04:30S 29°53' E 031°02'0 0.0
2014-Aug-14 03:30S 29°53' E 031°02'0 0.0
2014-Aug-14 02:30S 29°53' E 031°02'0 0.0
2014-Aug-14 01:30S 29°53' E 031°02'0 0.0
2014-Aug-14 00:24S 29°53' E 031°02'0 0.0
2014-Aug-13 23:12S 29°53' E 031°02'0 0.0
2014-Aug-13 22:30S 29°53' E 031°02'0 0.0
2014-Aug-13 21:24S 29°53' E 031°02'0 0.0
2014-Aug-13 20:30S 29°53' E 031°02'0 0.0
2014-Aug-13 19:18S 29°53' E 031°02'0 0.0
2014-Aug-13 18:18S 29°53' E 031°02'0 0.0
2014-Aug-13 17:30S 29°53' E 031°02'0 0.0
2014-Aug-13 16:30S 29°53' E 031°02'  
2014-Aug-10 06:00S 29°06' E 034°30'13021.6 360 / 151022.010.8 22.018.926.0
2014-Aug-10 00:00S 28°36' E 036°54'14123.4 080 / 121021.0 5.4 1.022.017.226.0
2014-Aug-09 18:00S 28°06' E 039°30'   100 / 131023.010.8 1.522.018.926.0

Dump ship's entire track history